Terminal Aerodrome Forecast
Issued by NWS Louisville, KY

Home | Current Version | Previous Version | Text Only | Print | Product List | Glossary On
Versions: 1 2 3 4 5 6 7 8 9 10 11 12 13 14 15 16 17 18 19 20 21 22 23
000
FTUS43 KLMK 051100
TAFBWG
TAF
KBWG 051129Z 0512/0612 00000KT 5SM BR VCTS SCT009 BKN022CB
      TEMPO 0512/0514 BKN008 OVC022CB
     FM051400 VRB04KT P6SM BKN025
     FM051500 06005KT P6SM SCT040 BKN200
     FM052300 VRB04KT P6SM FEW050 SCT200=

USA.gov is the U.S. government's official web portal to all federal, state and local government web resources and services.